Terminal Aerodrome Forecast
Issued by NWS

Home | Current Version | Previous Version | Text Only | Print | Product List | Glossary Off
Versions: 1 2 3 4 5 6 7 8 9 10 11 12 13 14 15 16 17

000
FTUS43 KGRB 210525
TAFAUW
TAF
KAUW 210525Z 2106/2206 20006KT 1/2SM FG OVC002
      TEMPO 2106/2109 1/4SM FG
     FM210900 24006KT 2SM BR BKN003
     FM211300 28005KT 5SM BR BKN007
     FM211600 25008KT P6SM BKN250
     FM212200 19005KT P6SM SCT250=

USA.gov is the U.S. government's official web portal to all federal, state and local government web resources and services.